Time;durP1;ratioP1;P1;durP2;ratioP2;P2;SDS_P1;SDS_P2;PMS_P1;PMS_P2;Temp;Humidity;BMP_temperature;BMP_pressure;BME280_temperature;BME280_humidity;BME280_pressure;Samples;Min_cycle;Max_cycle;Signal;HPM_P1;HPM_P2
2021/10/04 00:01:31;;;;;;;21.60;13.22;;;;;;;9.65;74.07;144629.22;1837798;77;22606;-57
2021/10/04 00:04:12;;;;;;;20.10;12.80;;;;;;;9.65;74.16;144629.22;1853454;77;22191;-59
2021/10/04 00:06:46;;;;;;;21.27;13.35;;;;;;;9.65;74.43;144629.22;1853614;77;22128;-57
2021/10/04 00:09:21;;;;;;;18.50;13.60;;;;;;;9.63;74.65;144624.19;1834954;77;22137;-56
2021/10/04 00:12:16;;;;;;;23.05;13.78;;;;;;;9.62;74.92;144621.70;1825253;77;22167;-58
2021/10/04 00:14:51;;;;;;;23.12;14.40;;;;;;;9.62;75.35;144620.47;1806317;77;38856;-56
2021/10/04 00:17:46;;;;;;;22.62;13.90;;;;;;;9.64;75.38;144626.73;1834925;77;22125;-54
2021/10/04 00:20:21;;;;;;;23.67;13.48;;;;;;;9.63;75.74;144624.19;1834974;77;22156;-59
2021/10/04 00:23:15;;;;;;;19.87;13.60;;;;;;;9.61;75.39;144619.17;1852542;77;22175;-62
2021/10/04 00:25:50;;;;;;;26.65;14.03;;;;;;;9.61;75.13;144619.17;1835086;77;22137;-57
2021/10/04 00:28:44;;;;;;;22.10;14.28;;;;;;;9.59;75.10;144614.16;1853603;77;22131;-58
2021/10/04 00:31:39;;;;;;;23.65;14.25;;;;;;;9.58;74.49;144610.42;1830906;77;22129;-56
2021/10/04 00:34:32;;;;;;;20.48;13.48;;;;;;;9.54;74.53;144602.91;1853550;77;22551;-61
2021/10/04 00:37:07;;;;;;;22.37;14.33;;;;;;;9.51;75.00;144594.11;1853742;77;22131;-60
2021/10/04 00:39:42;;;;;;;26.90;15.00;;;;;;;9.49;75.48;144589.09;1834954;77;22132;-61
2021/10/04 00:42:25;;;;;;;22.80;14.07;;;;;;;9.44;76.31;144577.84;1840842;77;22209;-60
2021/10/04 00:45:20;;;;;;;27.02;14.68;;;;;;;9.41;77.27;144569.05;1853462;77;22156;-58
2021/10/04 00:48:20;;;;;;;24.27;14.47;;;;;;;9.39;77.56;144564.03;1834100;77;22188;-61
2021/10/04 00:50:55;;;;;;;28.02;15.83;;;;;;;9.40;78.05;144567.81;1834981;77;22132;-59
2021/10/04 00:53:51;;;;;;;21.55;14.65;;;;;;;9.45;77.99;144579.09;1807327;77;22222;-58
2021/10/04 00:56:26;;;;;;;22.62;14.63;;;;;;;9.45;77.49;144579.09;1834970;77;22167;-59
2021/10/04 00:59:07;;;;;;;23.73;14.70;;;;;;;9.47;77.01;144584.11;1834165;77;22599;-58
2021/10/04 01:01:42;;;;;;;23.12;15.55;;;;;;;9.50;76.45;144591.63;1834175;77;22552;-61
2021/10/04 01:04:27;;;;;;;22.00;13.25;;;;;;;9.52;76.23;144597.89;1840996;77;22632;-60
2021/10/04 01:07:21;;;;;;;21.05;13.35;;;;;;;9.54;75.59;144601.63;1853502;77;22155;-58
2021/10/04 01:09:56;;;;;;;21.30;12.58;;;;;;;9.55;75.56;144605.41;1834971;77;22566;-58
2021/10/04 01:12:51;;;;;;;20.35;14.03;;;;;;;9.58;75.18;144611.66;1853548;77;22215;-59
2021/10/04 01:15:25;;;;;;;21.90;13.18;;;;;;;9.60;75.07;144616.69;1819403;77;38309;-58
2021/10/04 01:18:26;;;;;;;25.97;15.23;;;;;;;9.65;74.56;144629.22;1853529;77;22215;-57
2021/10/04 01:21:21;;;;;;;22.20;14.43;;;;;;;9.63;74.45;144624.19;1832286;77;22136;-58
2021/10/04 01:24:17;;;;;;;21.60;12.55;;;;;;;9.62;74.49;144621.70;1834679;77;22164;-58
2021/10/04 01:26:58;;;;;;;25.50;11.73;;;;;;;9.59;74.41;144614.16;1834152;77;22574;-59
2021/10/04 01:29:39;;;;;;;18.48;11.78;;;;;;;9.59;74.64;144614.16;1834151;77;22129;-58
2021/10/04 01:32:36;;;;;;;19.80;13.35;;;;;;;9.60;74.38;144616.69;1851622;77;22230;-56
2021/10/04 01:35:30;;;;;;;21.20;14.30;;;;;;;9.61;74.19;144619.17;1837792;77;28438;-61
2021/10/04 01:38:05;;;;;;;24.05;12.70;;;;;;;9.63;73.88;144624.19;1853535;77;22214;-57
2021/10/04 01:40:58;;;;;;;22.55;13.25;;;;;;;9.62;72.76;144621.70;1828700;77;22113;-57
2021/10/04 01:43:54;;;;;;;21.55;12.70;;;;;;;9.62;72.23;144621.70;1827669;77;22167;-59
2021/10/04 01:46:29;;;;;;;20.10;12.28;;;;;;;9.61;71.58;144619.17;1853535;77;22559;-60
2021/10/04 01:49:24;;;;;;;21.42;13.93;;;;;;;9.63;70.67;144624.19;1843312;78;22571;-61
2021/10/04 01:52:00;;;;;;;20.45;12.75;;;;;;;9.65;70.34;144629.22;1845334;77;22208;-59
2021/10/04 01:54:54;;;;;;;21.65;13.10;;;;;;;9.67;70.21;144634.25;1820114;77;22601;-59
2021/10/04 01:57:29;;;;;;;18.55;11.40;;;;;;;9.67;70.29;144634.25;1853531;77;22159;-58
2021/10/04 02:00:09;;;;;;;23.50;12.43;;;;;;;9.68;69.70;144636.72;1835056;77;22136;-61
2021/10/04 02:03:05;;;;;;;20.92;12.78;;;;;;;9.67;69.55;144634.25;1817505;77;22167;-59
2021/10/04 02:05:59;;;;;;;21.87;13.18;;;;;;;9.69;69.29;144639.27;1834942;77;22124;-60
2021/10/04 02:08:39;;;;;;;21.33;12.93;;;;;;;9.68;69.60;144636.72;1853513;77;22582;-59
2021/10/04 02:11:33;;;;;;;23.98;12.15;;;;;;;9.67;69.56;144634.25;1847811;77;22156;-61
2021/10/04 02:14:15;;;;;;;22.42;13.40;;;;;;;9.66;69.64;144631.70;1816232;77;22182;-60
2021/10/04 02:16:50;;;;;;;21.55;14.80;;;;;;;9.63;69.85;144624.19;1811995;77;28017;-60
2021/10/04 02:19:25;;;;;;;24.47;15.13;;;;;;;9.64;69.74;144625.44;1834950;77;22133;-61
2021/10/04 02:22:18;;;;;;;27.73;14.38;;;;;;;9.58;70.21;144610.42;1847317;77;22168;-59
2021/10/04 02:25:00;;;;;;;24.65;12.80;;;;;;;9.53;70.34;144599.13;1853508;77;22585;-61
2021/10/04 02:27:54;;;;;;;27.30;13.35;;;;;;;9.51;70.31;144594.11;1853572;77;22131;-59
2021/10/04 02:30:29;;;;;;;27.22;13.38;;;;;;;9.51;70.47;144594.11;1828726;77;22162;-62
2021/10/04 02:33:06;;;;;;;22.30;13.95;;;;;;;9.52;70.72;144597.89;1800421;79;28517;-59
2021/10/04 02:36:01;;;;;;;24.95;14.43;;;;;;;9.53;70.92;144600.37;1819176;77;28446;-61
2021/10/04 02:38:42;;;;;;;27.00;16.12;;;;;;;9.55;70.97;144604.16;1853505;77;22274;-60
2021/10/04 02:41:36;;;;;;;24.82;14.73;;;;;;;9.48;71.19;144587.84;1834093;77;22144;-60
2021/10/04 02:44:30;;;;;;;23.32;15.35;;;;;;;9.42;71.63;144571.59;1820141;77;22201;-60
2021/10/04 02:47:05;;;;;;;25.45;14.58;;;;;;;9.39;71.83;144564.03;1853492;77;22135;-62
2021/10/04 02:49:40;;;;;;;24.43;14.33;;;;;;;9.35;72.02;144556.52;1821594;77;22148;-63
2021/10/04 02:52:34;;;;;;;24.92;15.00;;;;;;;9.31;71.96;144546.53;1853466;77;22131;-61
2021/10/04 02:55:09;;;;;;;28.57;14.85;;;;;;;9.31;72.08;144546.53;1853518;77;22184;-61
2021/10/04 02:58:06;;;;;;;26.37;14.60;;;;;;;9.29;72.11;144541.50;1828093;77;22190;-61
2021/10/04 03:01:01;;;;;;;25.32;15.18;;;;;;;9.25;72.21;144530.22;1844083;77;22566;-62
2021/10/04 03:03:35;;;;;;;31.87;15.80;;;;;;;9.20;72.52;144518.94;1834956;77;22611;-60
2021/10/04 03:06:16;;;;;;;24.00;14.35;;;;;;;9.15;73.02;144506.41;1853403;77;22158;-60
2021/10/04 03:08:54;;;;;;;25.52;14.43;;;;;;;9.09;73.38;144491.39;1834174;77;22562;-64
2021/10/04 03:11:28;;;;;;;23.83;14.35;;;;;;;9.07;73.82;144486.38;1819304;77;22154;-60
2021/10/04 03:14:05;;;;;;;28.10;15.30;;;;;;;9.05;74.00;144482.59;1834738;77;22257;-63
2021/10/04 03:16:42;;;;;;;21.77;14.18;;;;;;;9.05;74.04;144481.34;1834736;77;22187;-61
2021/10/04 03:19:19;;;;;;;26.10;13.95;;;;;;;9.04;73.95;144478.87;1839723;77;22633;-62
2021/10/04 03:22:13;;;;;;;22.07;13.88;;;;;;;9.06;73.76;144483.88;1853481;77;22131;-59
2021/10/04 03:24:48;;;;;;;22.87;14.23;;;;;;;9.04;73.70;144478.87;1843384;77;22215;-60
2021/10/04 03:27:23;;;;;;;24.27;15.63;;;;;;;9.04;73.70;144478.87;1819429;77;28033;-60
2021/10/04 03:30:17;;;;;;;20.40;13.03;;;;;;;9.05;73.31;144482.59;1824229;77;22558;-61
2021/10/04 03:33:11;;;;;;;23.75;14.05;;;;;;;9.04;73.50;144478.87;1834925;77;22160;-60
2021/10/04 03:36:05;;;;;;;23.73;13.93;;;;;;;9.01;73.56;144471.36;1853439;77;22183;-61
2021/10/04 03:38:40;;;;;;;23.57;15.43;;;;;;;9.01;73.58;144472.59;1827971;77;22575;-61
2021/10/04 03:41:35;;;;;;;22.75;14.07;;;;;;;8.99;73.78;144466.34;1824955;77;22163;-61
2021/10/04 03:44:10;;;;;;;24.72;13.93;;;;;;;8.97;73.75;144461.31;1834945;77;22132;-60
2021/10/04 03:46:45;;;;;;;21.40;13.98;;;;;;;8.95;73.65;144456.30;1826728;77;22139;-62
2021/10/04 03:49:40;;;;;;;31.82;13.32;;;;;;;8.90;73.96;144446.31;1843313;77;22607;-63
2021/10/04 03:52:21;;;;;;;23.52;13.88;;;;;;;8.87;74.25;144437.52;1834255;77;22595;-62
2021/10/04 03:54:55;;;;;;;20.55;13.45;;;;;;;8.83;74.59;144428.77;1835014;77;22128;-63
2021/10/04 03:57:49;;;;;;;25.55;14.30;;;;;;;8.81;74.47;144423.75;1827729;77;22562;-64
2021/10/04 04:00:26;;;;;;;22.25;14.60;;;;;;;8.78;74.45;144416.25;1831060;77;22270;-62
2021/10/04 04:03:04;;;;;;;21.93;14.00;;;;;;;8.74;74.18;144406.20;1830944;77;22570;-59
2021/10/04 04:05:57;;;;;;;26.33;14.13;;;;;;;8.71;74.07;144398.70;1822502;77;22234;-60
2021/10/04 04:08:34;;;;;;;25.80;14.35;;;;;;;8.68;74.07;144392.44;1835059;77;22132;-62
2021/10/04 04:11:09;;;;;;;21.33;13.48;;;;;;;8.68;74.07;144392.44;1824196;77;22162;-60
2021/10/04 04:13:45;;;;;;;24.05;13.90;;;;;;;8.67;74.03;144388.66;1845016;77;22169;-62
2021/10/04 04:16:26;;;;;;;27.93;14.33;;;;;;;8.68;73.89;144391.19;1831224;77;22201;-62
2021/10/04 04:19:00;;;;;;;22.52;14.25;;;;;;;8.69;73.81;144394.92;1820517;77;22132;-63
2021/10/04 04:21:45;;;;;;;22.37;12.65;;;;;;;8.74;73.60;144404.97;1833701;77;22191;-63
2021/10/04 04:24:27;;;;;;;20.45;12.30;;;;;;;8.77;73.42;144413.70;1836391;77;22499;-61
2021/10/04 04:27:06;;;;;;;22.90;13.62;;;;;;;8.81;73.31;144423.75;1819338;77;28448;-61
2021/10/04 04:29:39;;;;;;;20.37;13.40;;;;;;;8.90;73.22;144446.31;1810221;77;28147;-61
2021/10/04 04:32:33;;;;;;;21.10;13.40;;;;;;;9.00;72.68;144468.83;1819055;77;22167;-72
2021/10/04 04:35:14;;;;;;;24.35;12.70;;;;;;;9.08;72.33;144488.86;1833306;77;22142;-61
2021/10/04 04:38:08;;;;;;;25.02;13.95;;;;;;;9.62;70.83;144620.47;1834936;77;22179;-64
2021/10/04 04:41:08;;;;;;;33.25;14.93;;;;;;;10.33;68.05;144794.72;1826609;77;22206;-62
2021/10/04 04:43:42;;;;;;;27.55;14.38;;;;;;;10.86;66.05;144926.45;1822721;77;22634;-62
2021/10/04 04:46:42;;;;;;;26.12;13.62;;;;;;;11.34;63.93;145043.12;1834019;77;22164;-60
2021/10/04 04:49:19;;;;;;;23.38;12.95;;;;;;;11.58;62.81;145100.89;1834687;77;22160;-70
2021/10/04 04:52:13;;;;;;;25.90;13.80;;;;;;;11.43;62.59;145064.48;1834751;77;22156;-67
2021/10/04 04:54:54;;;;;;;26.37;14.53;;;;;;;10.93;63.87;144942.75;1853414;77;22155;-70
2021/10/04 04:57:29;;;;;;;27.70;14.83;;;;;;;10.44;65.66;144822.34;1834947;77;22212;-65
2021/10/04 05:00:07;;;;;;;22.90;14.80;;;;;;;10.07;67.25;144730.73;1834990;77;22238;-69
2021/10/04 05:02:46;;;;;;;32.63;14.70;;;;;;;9.83;68.30;144671.84;1827750;77;22204;-72
2021/10/04 05:05:39;;;;;;;26.20;15.48;;;;;;;9.63;69.22;144624.19;1819377;77;38357;-66
2021/10/04 05:08:33;;;;;;;25.80;14.73;;;;;;;9.56;69.57;144607.87;1834819;77;22246;-67
2021/10/04 05:11:08;;;;;;;29.10;14.30;;;;;;;9.48;69.88;144586.59;1853500;77;22192;-66
2021/10/04 05:13:43;;;;;;;27.77;14.30;;;;;;;9.46;70.09;144581.58;1820890;77;22129;-77
2021/10/04 05:16:19;;;;;;;26.62;14.03;;;;;;;9.45;70.04;144579.09;1834762;77;22601;-66
2021/10/04 05:19:14;;;;;;;30.60;15.15;;;;;;;9.49;70.23;144589.09;1800668;79;22580;-71
2021/10/04 05:22:08;;;;;;;26.75;15.95;;;;;;;9.59;69.86;144614.16;1821215;77;22540;-63
2021/10/04 05:25:07;;;;;;;32.90;15.75;;;;;;;9.67;69.34;144634.25;1813614;77;22345;-65
2021/10/04 05:27:42;;;;;;;28.85;15.38;;;;;;;9.78;69.06;144661.80;1830428;77;22253;-69
2021/10/04 05:30:36;;;;;;;27.42;16.73;;;;;;;9.89;68.65;144686.86;1790785;77;22622;-69
2021/10/04 05:33:10;;;;;;;23.52;16.00;;;;;;;9.99;68.29;144711.94;1815049;77;22169;-67
2021/10/04 05:35:47;;;;;;;31.65;16.62;;;;;;;10.17;67.51;144757.06;1825334;77;22186;-69
2021/10/04 05:38:28;;;;;;;29.87;16.20;;;;;;;10.62;66.45;144866.23;1811326;77;22217;-68
2021/10/04 05:41:04;;;;;;;29.30;15.28;;;;;;;10.97;65.30;144952.80;1830375;77;22195;-67
2021/10/04 05:43:58;;;;;;;26.95;14.20;;;;;;;11.46;63.76;145072.00;1834474;77;22184;-68
2021/10/04 05:46:58;;;;;;;29.00;15.68;;;;;;;12.32;61.27;145283.00;1820380;77;22205;-70
2021/10/04 05:49:40;;;;;;;19.80;13.93;;;;;;;13.33;58.04;145531.83;1822049;77;22219;-69
2021/10/04 05:52:35;;;;;;;24.07;15.13;;;;;;;14.17;55.37;145736.75;1808196;77;28133;-71
2021/10/04 05:55:29;;;;;;;22.02;14.07;;;;;;;14.82;53.56;145897.84;1828864;77;22168;-69
2021/10/04 05:58:23;;;;;;;21.50;15.00;;;;;;;15.57;51.06;146081.61;1829527;77;22225;-65
2021/10/04 06:00:58;;;;;;;24.60;13.50;;;;;;;16.31;49.38;146263.03;1834520;77;22156;-69
2021/10/04 06:04:11;;;;;;;21.55;13.45;;;;;;;16.42;48.49;146290.77;1836900;77;22643;-70
2021/10/04 06:06:45;;;;;;;28.17;13.88;;;;;;;16.35;47.95;146273.12;1832065;77;22160;-69
2021/10/04 06:09:23;;;;;;;22.75;13.05;;;;;;;15.94;48.58;146173.59;1827917;77;22171;-72
2021/10/04 06:12:04;;;;;;;22.20;12.55;;;;;;;15.71;49.45;146115.69;1809770;77;22209;-67
2021/10/04 06:15:01;;;;;;;25.15;14.13;;;;;;;15.62;49.49;146095.50;1800275;77;28523;-70
2021/10/04 06:17:56;;;;;;;20.40;12.35;;;;;;;15.73;49.16;146121.98;1833564;77;22207;-72
2021/10/04 06:20:52;;;;;;;27.40;13.83;;;;;;;15.87;48.50;146154.72;1797288;77;38879;-63
2021/10/04 06:23:34;;;;;;;32.80;14.23;;;;;;;16.33;47.54;146269.33;1825687;77;22187;-66
2021/10/04 06:26:28;;;;;;;24.12;13.05;;;;;;;17.79;44.34;146628.66;1833769;77;22877;-68
2021/10/04 06:29:04;;;;;;;22.15;11.95;;;;;;;17.93;44.42;146662.73;1826016;77;22272;-67
2021/10/04 06:31:45;;;;;;;24.52;13.30;;;;;;;18.65;42.17;146840.66;1823431;77;22204;-72
2021/10/04 06:34:20;;;;;;;21.35;11.43;;;;;;;19.16;41.16;146966.94;1830085;77;22213;-65
2021/10/04 06:36:57;;;;;;;26.37;11.97;;;;;;;19.42;39.39;147030.05;1820147;77;22189;-67
2021/10/04 06:39:33;;;;;;;17.12;10.40;;;;;;;19.29;39.64;146998.48;1835185;77;22221;-74
2021/10/04 06:42:11;;;;;;;18.23;9.43;;;;;;;19.44;39.03;147035.11;1808764;77;22221;-67
2021/10/04 06:45:07;;;;;;;16.62;10.23;;;;;;;19.40;38.60;147025.00;1822795;77;22626;-69
2021/10/04 06:47:42;;;;;;;20.97;10.23;;;;;;;19.70;38.62;147099.56;1813031;77;22246;-69
2021/10/04 06:50:42;;;;;;;29.27;10.93;;;;;;;20.20;37.39;147222.06;1819703;77;22693;-67
2021/10/04 06:53:41;;;;;;;21.45;9.98;;;;;;;20.94;36.33;147405.34;1847569;77;22199;-72
2021/10/04 06:56:35;;;;;;;22.32;9.83;;;;;;;21.49;34.87;147540.69;1818834;77;22199;-67
2021/10/04 06:59:10;;;;;;;21.82;9.08;;;;;;;20.53;35.75;147305.48;1802035;79;22215;-71
2021/10/04 07:02:04;;;;;;;17.23;9.00;;;;;;;20.97;35.40;147414.22;1809920;77;22233;-67
2021/10/04 07:04:38;;;;;;;21.20;9.15;;;;;;;21.40;34.07;147519.22;1817091;77;22626;-67
2021/10/04 07:07:32;;;;;;;17.75;9.45;;;;;;;21.56;34.58;147558.41;1829168;77;22198;-72
2021/10/04 07:10:14;;;;;;;16.77;8.80;;;;;;;22.09;33.58;147689.95;1818130;77;22188;-71
2021/10/04 07:12:49;;;;;;;18.62;8.83;;;;;;;21.56;33.08;147558.41;1820031;77;38299;-73
2021/10/04 07:15:25;;;;;;;18.25;8.63;;;;;;;20.98;33.50;147415.47;1794347;79;22223;-64
2021/10/04 07:18:20;;;;;;;15.23;8.60;;;;;;;20.78;33.66;147366.16;1830259;77;22307;-67
2021/10/04 07:20:56;;;;;;;21.82;10.63;;;;;;;20.71;34.25;147348.47;1836615;77;28548;-68
2021/10/04 07:23:38;;;;;;;17.60;9.73;;;;;;;20.96;33.64;147410.41;1851636;77;22262;-72
2021/10/04 07:26:15;;;;;;;23.02;10.38;;;;;;;20.92;34.05;147400.31;1834381;77;22590;-69
2021/10/04 07:29:17;;;;;;;17.37;9.70;;;;;;;21.25;32.96;147482.48;1853732;77;22210;-65
2021/10/04 07:32:11;;;;;;;27.27;10.13;;;;;;;21.00;32.96;147421.78;1833541;77;22243;-71
2021/10/04 07:35:12;;;;;;;16.50;9.80;;;;;;;20.99;34.07;147419.28;1853557;77;22183;-71
2021/10/04 07:38:07;;;;;;;21.53;10.10;;;;;;;21.46;33.67;147535.63;1806818;77;28106;-72
2021/10/04 07:40:41;;;;;;;19.75;9.65;;;;;;;21.85;32.26;147631.77;1824101;77;22101;-69
2021/10/04 07:43:23;;;;;;;26.85;9.78;;;;;;;21.80;32.55;147617.81;1848744;77;22198;-65
2021/10/04 07:46:06;;;;;;;26.15;9.05;;;;;;;21.70;32.67;147593.78;1815597;77;22216;-78
2021/10/04 07:48:59;;;;;;;19.90;9.38;;;;;;;21.81;32.19;147621.63;1802017;77;28196;-69
2021/10/04 07:51:36;;;;;;;20.02;10.00;;;;;;;21.54;31.54;147553.33;1822516;77;22670;-73
2021/10/04 07:54:11;;;;;;;16.73;9.58;;;;;;;21.25;32.87;147482.48;1821052;77;22722;-65
2021/10/04 07:56:46;;;;;;;19.90;8.60;;;;;;;21.78;32.74;147614.06;1842605;77;22155;-64
2021/10/04 07:59:22;;;;;;;22.95;9.43;;;;;;;22.53;30.61;147798.80;1838266;77;27983;-66
2021/10/04 08:02:00;;;;;;;25.90;8.78;;;;;;;22.73;30.62;147849.41;1834743;77;22493;-73
2021/10/04 08:04:37;;;;;;;20.90;8.28;;;;;;;22.65;30.58;147829.17;1834715;77;22205;-67
2021/10/04 08:07:12;;;;;;;21.53;8.80;;;;;;;22.78;30.51;147859.55;1837867;77;28565;-70
2021/10/04 08:10:14;;;;;;;16.10;8.28;;;;;;;22.86;30.36;147879.80;1853557;77;22286;-74
2021/10/04 08:13:08;;;;;;;16.35;7.90;;;;;;;21.76;30.67;147608.98;1846818;77;22204;-69
2021/10/04 08:16:05;;;;;;;18.02;7.65;;;;;;;21.07;31.61;147438.25;1821368;77;22192;-66
2021/10/04 08:18:39;;;;;;;22.98;8.60;;;;;;;20.54;32.62;147308.05;1822664;77;22326;-73
2021/10/04 08:21:40;;;;;;;26.55;8.33;;;;;;;20.44;33.19;147282.72;1830432;77;22187;-66
2021/10/04 08:24:35;;;;;;;21.68;8.33;;;;;;;20.23;33.44;147229.67;1795589;77;27983;-73
2021/10/04 08:27:29;;;;;;;21.80;8.58;;;;;;;20.52;33.24;147302.94;1834860;77;22159;-77
2021/10/04 08:30:07;;;;;;;20.90;7.12;;;;;;;20.66;33.25;147335.81;1853490;77;22131;-70
2021/10/04 08:32:42;;;;;;;19.67;7.97;;;;;;;20.77;32.79;147364.91;1835045;77;22604;-71
2021/10/04 08:35:25;;;;;;;15.15;6.67;;;;;;;20.92;32.63;147401.56;1853555;77;22224;-72
2021/10/04 08:38:19;;;;;;;13.78;5.80;;;;;;;20.50;31.55;147296.61;1835004;77;22136;-76
2021/10/04 08:40:57;;;;;;;11.53;5.72;;;;;;;19.34;31.67;147011.11;1849353;77;22194;-73
2021/10/04 08:43:31;;;;;;;15.08;5.37;;;;;;;18.71;33.22;146855.78;1833275;77;22649;-67
2021/10/04 08:46:12;;;;;;;11.30;5.60;;;;;;;18.47;33.91;146795.19;1828265;77;22236;-73
2021/10/04 08:49:08;;;;;;;13.70;6.20;;;;;;;18.13;34.31;146711.94;1834375;77;22618;-67
2021/10/04 08:51:47;;;;;;;12.73;6.05;;;;;;;17.75;35.95;146618.55;1853336;77;22209;-70
2021/10/04 08:54:47;;;;;;;8.78;4.95;;;;;;;17.52;36.56;146563.06;1834875;77;22180;-67
2021/10/04 08:57:41;;;;;;;9.38;5.55;;;;;;;17.17;36.04;146476.05;1834944;77;22147;-67
2021/10/04 09:00:37;;;;;;;8.75;5.28;;;;;;;17.02;37.04;146439.53;1834921;77;22574;-70
2021/10/04 09:03:13;;;;;;;14.05;6.65;;;;;;;16.63;36.99;146343.67;1825960;77;22187;-69
2021/10/04 09:05:58;;;;;;;16.20;7.75;;;;;;;16.11;38.61;146215.19;1853543;77;22171;-70
2021/10/04 09:08:38;;;;;;;12.85;6.25;;;;;;;15.89;39.61;146159.75;1834992;77;22160;-66
2021/10/04 09:11:44;;;;;;;16.20;6.40;;;;;;;15.40;38.63;146041.34;1853842;77;22284;-69
2021/10/04 09:14:38;;;;;;;13.90;6.25;;;;;;;14.93;40.29;145925.56;1835005;77;22136;-67
2021/10/04 09:17:37;;;;;;;16.30;6.60;;;;;;;14.90;41.08;145917.97;1835038;77;22136;-73
2021/10/04 09:20:12;;;;;;;18.23;7.08;;;;;;;14.94;41.42;145926.81;1834990;77;22570;-76
2021/10/04 09:23:06;;;;;;;19.37;6.10;;;;;;;14.84;41.72;145902.89;1834984;77;22562;-66
2021/10/04 09:25:40;;;;;;;11.93;5.12;;;;;;;14.80;40.72;145891.56;1835006;77;22125;-71
2021/10/04 09:28:30;;;;;;;14.30;5.12;;;;;;;14.59;40.38;145841.22;1853434;77;22664;-68
2021/10/04 09:31:31;;;;;;;11.75;5.53;;;;;;;14.44;40.82;145804.69;1834326;77;22189;-67
2021/10/04 09:34:26;;;;;;;9.80;5.37;;;;;;;14.34;41.48;145779.53;1835091;77;22124;-65
2021/10/04 09:37:26;;;;;;;11.18;5.40;;;;;;;14.30;41.87;145769.48;1834982;77;22608;-74
2021/10/04 09:40:38;;;;;;;12.95;6.12;;;;;;;14.25;41.63;145756.91;1835019;77;22599;-70
2021/10/04 09:43:27;;;;;;;14.73;6.22;;;;;;;14.28;42.54;145764.45;1834190;77;22160;-70
2021/10/04 09:46:08;;;;;;;13.40;5.83;;;;;;;14.41;42.56;145795.89;1853635;77;22249;-68
2021/10/04 09:49:03;;;;;;;10.55;5.87;;;;;;;14.42;41.64;145799.64;1834977;77;22705;-69
2021/10/04 09:51:56;;;;;;;9.50;5.58;;;;;;;14.54;41.76;145829.89;1835069;77;22128;-67
2021/10/04 09:54:47;;;;;;;9.68;5.37;;;;;;;14.79;42.02;145889.06;1834340;77;22152;-69
2021/10/04 09:57:42;;;;;;;11.70;5.40;;;;;;;14.91;40.85;145920.52;1835076;77;22132;-70
2021/10/04 10:01:03;;;;;;;14.73;6.17;;;;;;;14.90;40.97;145916.72;1837885;77;22223;-69
2021/10/04 10:03:42;;;;;;;12.95;6.72;;;;;;;14.82;41.73;145897.84;1835043;77;22125;-71
2021/10/04 10:06:23;;;;;;;11.15;5.58;;;;;;;14.87;42.09;145909.19;1853558;77;22481;-68
2021/10/04 10:09:21;;;;;;;11.70;5.90;;;;;;;15.02;42.33;145946.94;1834971;77;22143;-66
2021/10/04 10:11:57;;;;;;;13.18;5.83;;;;;;;15.18;42.05;145985.94;1843544;77;22579;-73
2021/10/04 10:14:57;;;;;;;12.18;6.33;;;;;;;15.21;41.62;145993.48;1834247;77;22160;-65
2021/10/04 10:17:34;;;;;;;9.85;6.00;;;;;;;15.19;41.65;145988.48;1853689;77;22132;-71
2021/10/04 10:20:11;;;;;;;11.60;6.40;;;;;;;15.15;41.42;145978.41;1835070;77;22136;-66
2021/10/04 10:23:08;;;;;;;11.83;6.25;;;;;;;15.07;41.89;145959.53;1819419;77;27990;-67
2021/10/04 10:26:31;;;;;;;8.95;5.72;;;;;;;15.02;41.67;145945.69;1834231;77;22258;-70
2021/10/04 10:29:21;;;;;;;15.85;5.97;;;;;;;15.06;40.80;145955.72;1834995;77;22129;-71
2021/10/04 10:32:18;;;;;;;14.43;5.37;;;;;;;15.11;40.85;145968.31;1853602;77;22171;-69
2021/10/04 10:35:12;;;;;;;12.90;6.00;;;;;;;15.12;40.62;145970.86;1835152;77;22157;-70
2021/10/04 10:38:06;;;;;;;9.38;4.85;;;;;;;15.26;40.44;146004.83;1835076;77;22136;-67
2021/10/04 10:41:17;;;;;;;11.12;4.78;;;;;;;15.24;40.03;146001.08;1835093;77;22164;-69
2021/10/04 10:44:07;;;;;;;10.23;4.90;;;;;;;15.35;40.43;146028.75;1853584;77;22589;-68
2021/10/04 10:47:01;;;;;;;11.60;5.03;;;;;;;15.55;40.11;146077.86;1834970;77;22133;-65
2021/10/04 10:50:08;;;;;;;9.03;5.40;;;;;;;15.66;40.21;146104.30;1835071;77;22539;-69
2021/10/04 10:53:12;;;;;;;9.60;5.17;;;;;;;15.79;40.15;146137.06;1853582;77;22647;-72
2021/10/04 10:56:02;;;;;;;8.95;4.97;;;;;;;15.94;39.72;146172.34;1835199;77;22133;-72
2021/10/04 10:58:37;;;;;;;7.80;5.53;;;;;;;16.10;38.96;146212.64;1835019;77;22563;-65
2021/10/04 11:01:34;;;;;;;7.92;4.33;;;;;;;16.16;38.75;146227.78;1846224;77;22146;-68
2021/10/04 11:04:43;;;;;;;8.73;5.05;;;;;;;16.09;39.22;146208.89;1819429;77;27971;-72
2021/10/04 11:07:52;;;;;;;7.75;4.90;;;;;;;16.00;39.41;146187.45;1834846;77;22155;-74
2021/10/04 11:10:27;;;;;;;7.97;5.00;;;;;;;15.89;39.58;146159.75;1853543;77;22152;-66
2021/10/04 11:13:35;;;;;;;7.97;4.10;;;;;;;15.73;39.23;146121.98;1821768;77;22590;-63
2021/10/04 11:16:25;;;;;;;7.92;4.47;;;;;;;15.64;39.04;146100.50;1835078;77;22124;-67
2021/10/04 11:19:25;;;;;;;10.00;5.47;;;;;;;15.81;39.36;146140.88;1835031;77;22125;-67
2021/10/04 11:22:24;;;;;;;13.90;7.00;;;;;;;15.90;39.81;146162.25;1853647;77;22175;-66
2021/10/04 11:25:13;;;;;;;9.13;5.60;;;;;;;15.91;39.92;146164.81;1835052;77;22155;-73
2021/10/04 11:28:09;;;;;;;11.60;5.65;;;;;;;15.93;39.93;146169.84;1853574;77;22135;-73
2021/10/04 11:31:12;;;;;;;8.10;5.05;;;;;;;15.95;39.58;146174.84;1853574;77;22208;-68
2021/10/04 11:34:04;;;;;;;10.18;5.25;;;;;;;15.81;39.05;146142.13;1834240;77;22180;-68
2021/10/04 11:36:47;;;;;;;7.40;4.92;;;;;;;15.58;39.30;146084.16;1835077;77;22132;-67
2021/10/04 11:39:31;;;;;;;7.28;4.50;;;;;;;15.49;39.70;146061.47;1835109;77;22144;-65
2021/10/04 11:42:25;;;;;;;10.90;5.50;;;;;;;15.59;40.05;146086.66;1854132;77;22124;-66
2021/10/04 11:45:00;;;;;;;10.13;5.40;;;;;;;15.69;40.12;146111.89;1838152;77;27990;-63
2021/10/04 11:48:35;;;;;;;9.08;4.75;;;;;;;15.88;39.54;146157.25;1834774;77;22220;-71
2021/10/04 11:51:24;;;;;;;12.80;5.30;;;;;;;16.00;39.28;146187.45;1819481;77;28004;-73
2021/10/04 11:53:54;;;;;;;9.20;5.15;;;;;;;16.08;39.31;146207.64;1835028;77;22155;-63
2021/10/04 11:56:32;;;;;;;17.32;6.03;;;;;;;16.08;38.88;146206.34;1834966;77;22582;-66
2021/10/04 11:59:07;;;;;;;7.33;4.83;;;;;;;16.03;39.09;146196.28;1819596;77;28015;-69
2021/10/04 12:01:42;;;;;;;9.10;4.75;;;;;;;16.09;39.09;146208.89;1853630;77;22567;-70
2021/10/04 12:04:37;;;;;;;8.35;4.45;;;;;;;16.17;39.06;146229.03;1835032;77;22563;-73
2021/10/04 12:07:31;;;;;;;9.23;4.85;;;;;;;16.33;38.34;146268.06;1835006;77;22136;-67
2021/10/04 12:10:39;;;;;;;6.33;4.00;;;;;;;16.46;38.02;146300.81;1835051;77;22579;-67
2021/10/04 12:13:41;;;;;;;9.85;4.45;;;;;;;16.62;38.13;146339.91;1819598;77;22159;-65
2021/10/04 12:16:20;;;;;;;14.20;5.00;;;;;;;16.70;37.52;146361.31;1834833;77;22147;-73
2021/10/04 12:19:15;;;;;;;9.78;4.58;;;;;;;16.85;37.24;146396.67;1821682;77;22210;-70
2021/10/04 12:21:56;;;;;;;8.00;5.12;;;;;;;16.75;37.58;146372.67;1822600;77;22172;-70
2021/10/04 12:24:50;;;;;;;11.73;4.75;;;;;;;16.46;37.72;146300.81;1829637;77;22170;-66
2021/10/04 12:27:32;;;;;;;7.95;4.10;;;;;;;16.25;38.36;146250.42;1844129;77;22610;-70
2021/10/04 12:30:12;;;;;;;9.28;4.83;;;;;;;16.09;38.37;146210.14;1830734;77;22189;-72
2021/10/04 12:32:52;;;;;;;8.50;4.10;;;;;;;16.12;39.06;146217.69;1825827;77;22286;-69
2021/10/04 12:35:27;;;;;;;6.65;3.75;;;;;;;16.31;38.77;146263.03;1834986;77;22120;-70
2021/10/04 12:38:10;;;;;;;8.90;4.55;;;;;;;16.27;38.69;146254.22;1841491;77;22257;-67
2021/10/04 12:41:00;;;;;;;9.08;4.40;;;;;;;16.26;38.84;146252.97;1815039;77;22283;-72
2021/10/04 12:43:36;;;;;;;6.92;3.92;;;;;;;16.26;38.75;146252.97;1810677;77;22166;-64
2021/10/04 12:46:37;;;;;;;11.08;4.20;;;;;;;16.48;38.98;146305.87;1830218;77;22196;-68